Time;durP1;ratioP1;P1;durP2;ratioP2;P2;SDS_P1;SDS_P2;PMS_P1;PMS_P2;Temp;Humidity;BMP_temperature;BMP_pressure;BME280_temperature;BME280_humidity;BME280_pressure;Samples;Min_cycle;Max_cycle;Signal;HPM_P1;HPM_P2
2021/11/30 00:07:15;;;;;;;10.00;3.17;;;4.20;99.90;;;;;;6632982;89;20220;-77
2021/11/30 00:17:17;;;;;;;7.80;2.60;;;4.20;99.90;;;;;;6650294;89;20529;-76
2021/11/30 00:27:18;;;;;;;7.72;2.58;;;4.10;99.90;;;;;;6649058;89;20191;-77
2021/11/30 00:37:18;;;;;;;5.00;2.62;;;4.00;99.90;;;;;;6653308;89;20652;-77
2021/11/30 00:47:26;;;;;;;9.85;2.65;;;4.00;99.90;;;;;;6649903;89;20221;-76
2021/11/30 00:57:27;;;;;;;7.22;3.10;;;4.00;99.90;;;;;;6654156;89;20506;-76
2021/11/30 01:07:27;;;;;;;5.20;2.37;;;3.90;99.90;;;;;;6654157;89;20756;-76
2021/11/30 01:17:28;;;;;;;4.72;1.98;;;4.10;99.90;;;;;;6654953;89;20207;-77
2021/11/30 01:27:29;;;;;;;4.00;1.83;;;4.00;99.90;;;;;;6654071;89;20402;-76
2021/11/30 01:57:33;;;;;;;6.68;2.20;;;3.90;99.90;;;;;;6735194;88;20259;-79
2021/11/30 02:07:34;;;;;;;7.30;2.45;;;3.90;99.90;;;;;;6737090;88;20992;-81
2021/11/30 02:17:35;;;;;;;4.93;2.05;;;3.90;99.90;;;;;;6736817;88;20537;-80
2021/11/30 02:27:36;;;;;;;4.62;1.98;;;4.10;99.90;;;;;;6729072;88;20199;-78
2021/11/30 02:37:45;;;;;;;5.18;1.75;;;4.00;99.90;;;;;;6724472;88;20286;-79
2021/11/30 02:47:46;;;;;;;6.50;1.50;;;4.10;99.90;;;;;;6735022;88;20275;-79
2021/11/30 02:57:47;;;;;;;4.00;1.30;;;4.10;99.90;;;;;;6736044;88;20308;-79
2021/11/30 03:07:47;;;;;;;4.27;1.33;;;4.20;99.90;;;;;;6735899;88;20285;-79
2021/11/30 03:17:49;;;;;;;4.00;1.20;;;4.00;99.90;;;;;;6733543;88;20674;-78
2021/11/30 03:27:50;;;;;;;4.50;1.50;;;3.90;99.90;;;;;;6724638;88;20180;-77
2021/11/30 03:37:51;;;;;;;2.75;1.33;;;3.70;99.90;;;;;;6719199;88;20206;-77
2021/11/30 03:47:51;;;;;;;6.40;1.62;;;3.80;99.90;;;;;;6717314;88;20652;-77
2021/11/30 03:57:52;;;;;;;2.45;1.35;;;3.60;99.90;;;;;;6717367;88;20696;-76
2021/11/30 04:07:52;;;;;;;1.02;0.50;;;3.50;99.90;;;;;;6719162;88;20210;-78
2021/11/30 04:17:53;;;;;;;4.10;1.30;;;3.50;99.90;;;;;;6723087;88;20197;-77
2021/11/30 04:27:53;;;;;;;2.33;0.90;;;3.60;99.90;;;;;;6725288;88;20231;-77
2021/11/30 04:37:54;;;;;;;1.23;0.55;;;3.60;99.90;;;;;;6721410;88;20222;-76
2021/11/30 04:47:56;;;;;;;1.83;0.65;;;3.70;99.90;;;;;;6719792;88;20282;-76
2021/11/30 04:57:59;;;;;;;1.12;0.50;;;3.70;99.90;;;;;;6726316;88;20614;-77
2021/11/30 05:08:00;;;;;;;0.90;0.30;;;3.80;99.90;;;;;;6718538;88;20244;-76
2021/11/30 05:18:01;;;;;;;1.02;0.30;;;3.90;99.90;;;;;;6708235;88;20194;-76
2021/11/30 05:28:05;;;;;;;0.90;0.30;;;4.20;99.90;;;;;;6727218;88;20214;-76
2021/11/30 05:38:05;;;;;;;0.43;0.10;;;4.20;99.90;;;;;;6721926;88;20511;-76
2021/11/30 05:48:07;;;;;;;0.80;0.30;;;4.40;99.90;;;;;;6729572;88;20196;-76
2021/11/30 05:58:08;;;;;;;0.68;0.25;;;4.40;99.90;;;;;;6718922;88;20617;-76
2021/11/30 06:08:08;;;;;;;0.73;0.30;;;4.50;99.90;;;;;;6725860;88;20195;-77
2021/11/30 06:18:09;;;;;;;2.25;0.70;;;4.70;99.90;;;;;;6736614;88;21132;-77
2021/11/30 06:28:09;;;;;;;2.87;0.30;;;4.80;99.90;;;;;;6733258;88;20204;-78
2021/11/30 06:38:10;;;;;;;1.00;0.30;;;5.00;99.90;;;;;;6722804;88;20317;-77
2021/11/30 06:48:11;;;;;;;0.60;0.20;;;5.00;99.90;;;;;;6718220;88;20196;-78
2021/11/30 06:58:11;;;;;;;0.75;0.30;;;5.20;99.90;;;;;;6723727;88;20275;-77
2021/11/30 07:08:15;;;;;;;0.60;0.25;;;5.40;99.90;;;;;;6721982;88;20309;-76
2021/11/30 07:18:16;;;;;;;0.93;0.40;;;5.30;99.90;;;;;;6718514;88;20174;-77
2021/11/30 07:28:22;;;;;;;0.60;0.30;;;5.20;99.90;;;;;;6724949;88;20254;-76
2021/11/30 07:38:23;;;;;;;1.00;0.20;;;5.30;99.90;;;;;;6714343;88;20209;-77
2021/11/30 07:48:24;;;;;;;0.70;0.30;;;5.30;99.90;;;;;;6713553;88;20537;-76
2021/11/30 07:58:25;;;;;;;0.70;0.30;;;5.40;99.90;;;;;;6714517;88;20717;-77
2021/11/30 08:08:26;;;;;;;0.90;0.32;;;5.40;99.90;;;;;;6717765;88;20196;-76
2021/11/30 08:18:26;;;;;;;1.58;0.47;;;5.50;99.90;;;;;;6714046;88;20215;-76
2021/11/30 08:28:27;;;;;;;2.80;0.30;;;5.60;99.90;;;;;;6713971;88;20181;-76
2021/11/30 08:38:27;;;;;;;3.10;0.30;;;5.80;99.90;;;;;;6718358;88;20628;-77
2021/11/30 08:48:28;;;;;;;0.30;0.10;;;6.00;99.90;;;;;;6712998;88;20189;-77
2021/11/30 08:58:29;;;;;;;0.50;0.20;;;6.20;99.90;;;;;;6715937;88;20222;-76
2021/11/30 09:08:29;;;;;;;0.65;0.20;;;6.30;99.90;;;;;;6719962;88;20223;-77
2021/11/30 09:18:30;;;;;;;1.95;0.35;;;6.30;99.90;;;;;;6716473;88;20279;-77
2021/11/30 09:28:31;;;;;;;0.73;0.28;;;6.40;99.90;;;;;;6716965;88;20605;-77
2021/11/30 09:38:32;;;;;;;0.55;0.30;;;6.50;99.90;;;;;;6715751;88;20236;-77
2021/11/30 09:48:34;;;;;;;1.20;0.40;;;6.70;99.90;;;;;;6717467;88;20712;-77
2021/11/30 09:58:34;;;;;;;0.85;0.40;;;6.90;99.90;;;;;;6714187;88;20196;-77
2021/11/30 10:08:41;;;;;;;0.98;0.30;;;7.00;99.90;;;;;;6718476;88;20670;-77
2021/11/30 10:18:43;;;;;;;0.68;0.30;;;7.10;99.90;;;;;;6720143;88;20717;-76
2021/11/30 10:28:43;;;;;;;1.00;0.30;;;7.20;99.90;;;;;;6722988;88;20245;-77
2021/11/30 10:38:44;;;;;;;0.95;0.20;;;7.30;99.90;;;;;;6722589;88;20247;-76
2021/11/30 10:48:45;;;;;;;1.15;0.50;;;7.40;99.90;;;;;;6719537;88;20186;-77
2021/11/30 10:58:46;;;;;;;1.05;0.30;;;7.40;99.90;;;;;;6717431;88;20741;-77
2021/11/30 11:08:49;;;;;;;1.10;0.50;;;7.50;99.90;;;;;;6718269;88;20664;-77
2021/11/30 11:18:51;;;;;;;1.08;0.60;;;7.60;99.90;;;;;;6714099;88;20284;-77
2021/11/30 11:28:54;;;;;;;1.42;0.80;;;7.70;99.90;;;;;;6717180;88;20228;-77
2021/11/30 11:38:54;;;;;;;1.55;0.77;;;7.80;99.90;;;;;;6722082;88;20410;-76
2021/11/30 11:48:58;;;;;;;1.00;0.50;;;8.00;99.90;;;;;;6725394;88;20202;-77
2021/11/30 11:59:19;;;;;;;0.90;0.30;;;8.10;99.90;;;;;;6718066;88;20197;-76
2021/11/30 12:09:30;;;;;;;1.45;0.30;;;8.10;99.90;;;;;;6715510;88;20314;-77
2021/11/30 12:19:38;;;;;;;1.00;0.30;;;8.20;99.90;;;;;;6717396;88;20218;-77
2021/11/30 12:29:39;;;;;;;0.90;0.40;;;8.10;99.90;;;;;;6726204;88;20285;-77
2021/11/30 12:39:58;;;;;;;1.80;0.30;;;8.10;99.90;;;;;;6714813;88;20219;-77
2021/11/30 12:49:59;;;;;;;1.20;0.40;;;8.10;99.90;;;;;;6724304;88;20311;-77
2021/11/30 13:00:11;;;;;;;0.80;0.32;;;8.10;99.90;;;;;;6715797;88;20360;-77
2021/11/30 13:10:23;;;;;;;0.90;0.37;;;8.30;99.90;;;;;;6730385;88;20177;-77
2021/11/30 13:20:29;;;;;;;1.70;0.40;;;8.30;99.90;;;;;;6722194;88;20261;-76
2021/11/30 13:30:32;;;;;;;2.30;0.47;;;8.20;99.90;;;;;;6716795;88;20182;-77
2021/11/30 13:40:32;;;;;;;2.37;0.50;;;8.30;99.90;;;;;;6721026;88;20193;-77
2021/11/30 13:50:39;;;;;;;1.15;0.45;;;8.40;99.90;;;;;;6719564;88;20358;-77
2021/11/30 14:00:47;;;;;;;1.12;0.43;;;8.50;99.90;;;;;;6718395;88;20211;-77
2021/11/30 14:10:48;;;;;;;1.33;0.50;;;8.50;99.90;;;;;;6717340;88;20181;-77
2021/11/30 14:20:48;;;;;;;1.42;0.40;;;8.50;99.90;;;;;;6718045;88;20193;-77
2021/11/30 14:30:49;;;;;;;1.33;0.50;;;8.50;99.90;;;;;;6716369;88;20687;-77
2021/11/30 14:40:50;;;;;;;1.40;0.65;;;8.60;99.90;;;;;;6718266;88;20478;-77
2021/11/30 14:51:00;;;;;;;2.30;0.73;;;8.50;99.90;;;;;;6719390;88;20696;-78
2021/11/30 15:01:18;;;;;;;1.50;0.75;;;8.50;99.90;;;;;;6724380;88;20539;-77
2021/11/30 15:11:22;;;;;;;1.12;0.73;;;8.50;99.90;;;;;;6716925;88;20189;-78
2021/11/30 15:21:23;;;;;;;1.40;0.75;;;8.60;99.90;;;;;;6713696;88;20334;-77
2021/11/30 15:31:24;;;;;;;4.83;2.23;;;8.60;99.90;;;;;;6717607;88;20241;-77
2021/11/30 15:41:25;;;;;;;1.40;0.75;;;8.60;99.90;;;;;;6713785;88;20529;-77
2021/11/30 15:51:28;;;;;;;1.40;0.85;;;8.70;99.90;;;;;;6715122;88;20213;-78
2021/11/30 16:01:29;;;;;;;2.10;1.00;;;8.70;99.90;;;;;;6712829;88;20202;-77
2021/11/30 16:11:31;;;;;;;1.95;1.05;;;8.80;99.90;;;;;;6713721;88;20709;-76
2021/11/30 16:21:32;;;;;;;3.10;1.30;;;8.90;99.90;;;;;;6718807;88;20206;-76
2021/11/30 16:31:35;;;;;;;3.87;1.70;;;8.80;99.90;;;;;;6715872;88;20210;-76
2021/11/30 16:41:36;;;;;;;4.20;1.67;;;8.90;99.90;;;;;;6714386;88;20192;-76
2021/11/30 16:51:37;;;;;;;4.25;1.70;;;8.90;99.90;;;;;;6715881;88;20207;-76
2021/11/30 17:01:39;;;;;;;3.20;1.75;;;9.00;99.90;;;;;;6714770;88;21064;-75
2021/11/30 17:11:39;;;;;;;3.70;1.55;;;9.00;99.90;;;;;;6711803;88;20922;-76
2021/11/30 17:21:42;;;;;;;2.85;1.70;;;9.10;99.90;;;;;;6714902;88;20314;-75
2021/11/30 17:31:46;;;;;;;3.47;2.08;;;9.10;99.90;;;;;;6716641;88;20335;-76
2021/11/30 17:41:47;;;;;;;3.62;2.30;;;9.10;99.90;;;;;;6715920;88;20205;-76
2021/11/30 17:51:47;;;;;;;3.50;1.67;;;9.20;99.90;;;;;;6726045;88;20214;-75
2021/11/30 18:01:48;;;;;;;5.28;2.42;;;9.30;99.90;;;;;;6716873;88;20193;-76
2021/11/30 18:11:49;;;;;;;7.05;2.55;;;9.30;99.90;;;;;;6715847;88;20649;-74
2021/11/30 18:21:50;;;;;;;4.10;2.85;;;9.40;99.90;;;;;;6707494;88;20239;-74
2021/11/30 18:31:50;;;;;;;5.40;2.97;;;9.40;99.90;;;;;;6723566;88;20296;-81
2021/11/30 18:41:51;;;;;;;3.55;2.40;;;9.60;99.90;;;;;;6730174;88;20270;-78
2021/11/30 18:51:52;;;;;;;4.85;2.37;;;9.50;99.90;;;;;;6720068;88;20210;-76
2021/11/30 19:01:52;;;;;;;4.00;2.30;;;9.50;99.90;;;;;;6727852;88;20205;-77
2021/11/30 19:11:53;;;;;;;5.72;2.53;;;9.40;99.90;;;;;;6719620;88;20688;-74
2021/11/30 19:21:54;;;;;;;3.83;2.10;;;9.50;99.90;;;;;;6713959;88;20208;-76
2021/11/30 19:31:55;;;;;;;4.68;2.12;;;9.40;99.90;;;;;;6717016;88;21117;-76
2021/11/30 19:41:56;;;;;;;3.72;1.83;;;9.30;99.90;;;;;;6721312;77;20758;-74
2021/11/30 19:51:56;;;;;;;3.33;1.73;;;9.30;99.90;;;;;;6718438;88;20600;-76
2021/11/30 20:12:16;;;;;;;3.05;1.87;;;9.40;99.90;;;;;;6728303;88;20213;-74
2021/11/30 20:22:16;;;;;;;3.83;1.90;;;9.10;99.90;;;;;;6724044;88;20728;-75
2021/11/30 20:32:17;;;;;;;2.62;1.00;;;9.20;99.90;;;;;;6728587;88;20212;-74
2021/11/30 20:42:18;;;;;;;2.78;1.20;;;9.20;99.90;;;;;;6739630;88;20204;-74
2021/11/30 20:52:18;;;;;;;6.10;2.10;;;9.20;99.90;;;;;;6733406;88;20190;-75
2021/11/30 21:12:40;;;;;;;3.22;1.27;;;8.70;99.90;;;;;;6736430;88;20202;-75
2021/11/30 21:22:43;;;;;;;1.70;0.80;;;8.70;99.90;;;;;;6735173;88;20703;-75
2021/11/30 21:32:45;;;;;;;1.08;0.30;;;8.70;99.90;;;;;;6736398;88;20204;-74
2021/11/30 21:42:50;;;;;;;0.73;0.28;;;8.70;99.90;;;;;;6734728;88;20214;-75
2021/11/30 21:52:51;;;;;;;2.10;0.40;;;8.80;99.90;;;;;;6733780;88;20194;-74
2021/11/30 22:02:52;;;;;;;0.80;0.30;;;9.00;99.90;;;;;;6733442;88;20596;-75
2021/11/30 22:12:53;;;;;;;0.52;0.30;;;9.00;99.90;;;;;;6732504;88;20190;-75
2021/11/30 22:22:53;;;;;;;2.15;0.45;;;8.90;99.90;;;;;;6731003;88;20744;-75
2021/11/30 22:32:58;;;;;;;1.07;0.40;;;8.90;99.90;;;;;;6734513;88;20244;-76
2021/11/30 22:42:59;;;;;;;0.82;0.30;;;8.70;99.90;;;;;;6738721;88;20501;-77
2021/11/30 22:52:59;;;;;;;1.02;0.30;;;8.70;99.90;;;;;;6729932;88;20198;-76
2021/11/30 23:03:00;;;;;;;0.80;0.30;;;8.80;99.90;;;;;;6744961;88;20188;-74
2021/11/30 23:13:02;;;;;;;0.60;0.20;;;8.80;99.90;;;;;;6751520;88;20645;-77
2021/11/30 23:23:07;;;;;;;1.65;0.20;;;8.90;99.90;;;;;;6741311;88;20181;-75
2021/11/30 23:33:08;;;;;;;0.47;0.10;;;8.90;99.90;;;;;;6737581;88;20206;-74
2021/11/30 23:43:09;;;;;;;0.47;0.20;;;9.00;99.90;;;;;;6730462;88;20213;-75
2021/11/30 23:53:09;;;;;;;0.47;0.20;;;8.80;99.90;;;;;;6730559;88;20247;-76
